Sct Breithorn — HBHC — position and weather

sailwx.info

Track history (hours):
 
Tides and Currents Weather Stations Pressure Air Temp Water Temp Dewpoint Dewpoint Depression Visibility Wind Speed Wind Dir Waves Ship Positions

Sct Breithorn

Last reported at 2016-Dec-20 16:33 UTC. Time now 2017-Jan-22 16:25 UTC.
Position N 37°24' E 025°55'.
Warning: this ship's position is 32 days out of date.

Length 165 m; draft 9.8 m.

Type: Ship. MMSI: 269848000.

Date/timePositionNaut miles runAvg speedWind from/ knotsBaromVisibWave heightAir tempDewpointWater temp
2016-Dec-20 16:33N 37°24' E 025°55'  
2016-Dec-16 11:32N 46°38' E 031°55'10 9.6
2016-Dec-16 10:32N 46°48' E 031°53'10 9.6
2016-Dec-16 09:31N 46°56' E 032°00'1 0.1
2016-Dec-16 04:20N 46°57' E 032°00'0 0.0
2016-Dec-16 01:08N 46°57' E 032°00'0 0.0
2016-Dec-15 19:29N 46°57' E 032°00'0 0.0
2016-Dec-15 17:20N 46°57' E 032°00'0 0.0
2016-Dec-15 15:17N 46°57' E 032°00'0 0.0
2016-Dec-15 13:20N 46°57' E 032°00'0 0.0
2016-Dec-15 12:17N 46°57' E 032°00'0 0.0
2016-Dec-15 03:08N 46°57' E 032°00'0 0.0
2016-Dec-14 21:20N 46°57' E 032°00'0 0.0
2016-Dec-14 20:29N 46°57' E 032°00'0 0.0
2016-Dec-14 05:26N 46°57' E 032°00'0 0.0
2016-Dec-14 04:23N 46°57' E 032°00'0 0.0
2016-Dec-13 12:29N 46°57' E 032°00'0 0.0
2016-Dec-13 01:11N 46°57' E 032°00'0 0.0
2016-Dec-12 23:11N 46°57' E 032°00'2 3.0
2016-Dec-12 22:33N 46°55' E 032°01'1211.5
2016-Dec-12 21:33N 46°45' E 031°54'10 9.4
2016-Dec-12 20:33N 46°36' E 031°49'36 9.1
2016-Dec-12 16:33N 46°29' E 030°57'5 4.4
2016-Dec-12 15:29N 46°24' E 030°57'  
Track history (hours):
 
Tides and Currents Weather Stations Pressure Air Temp Water Temp Dewpoint Dewpoint Depression Visibility Wind Speed Wind Dir Waves Ship Positions

Sct Breithorn

Last reported at 2016-Dec-20 16:33 UTC. Time now 2017-Jan-22 16:25 UTC.
Position N 37°24' E 025°55'.
Warning: this ship's position is 32 days out of date.

Length 165 m; draft 9.8 m.

Type: Ship. MMSI: 269848000.

Date/timePositionNaut miles runAvg speedWind from/ knotsBaromVisibWave heightAir tempDewpointWater temp
2016-Dec-20 16:33N 37°24' E 025°55'  
2016-Dec-16 11:32N 46°38' E 031°55'10 9.6
2016-Dec-16 10:32N 46°48' E 031°53'10 9.6
2016-Dec-16 09:31N 46°56' E 032°00'1 0.1
2016-Dec-16 04:20N 46°57' E 032°00'0 0.0
2016-Dec-16 01:08N 46°57' E 032°00'0 0.0
2016-Dec-15 19:29N 46°57' E 032°00'0 0.0
2016-Dec-15 17:20N 46°57' E 032°00'0 0.0
2016-Dec-15 15:17N 46°57' E 032°00'0 0.0
2016-Dec-15 13:20N 46°57' E 032°00'0 0.0
2016-Dec-15 12:17N 46°57' E 032°00'0 0.0
2016-Dec-15 03:08N 46°57' E 032°00'0 0.0
2016-Dec-14 21:20N 46°57' E 032°00'0 0.0
2016-Dec-14 20:29N 46°57' E 032°00'0 0.0
2016-Dec-14 05:26N 46°57' E 032°00'0 0.0
2016-Dec-14 04:23N 46°57' E 032°00'0 0.0
2016-Dec-13 12:29N 46°57' E 032°00'0 0.0
2016-Dec-13 01:11N 46°57' E 032°00'0 0.0
2016-Dec-12 23:11N 46°57' E 032°00'2 3.0
2016-Dec-12 22:33N 46°55' E 032°01'1211.5
2016-Dec-12 21:33N 46°45' E 031°54'10 9.4
2016-Dec-12 20:33N 46°36' E 031°49'36 9.1
2016-Dec-12 16:33N 46°29' E 030°57'5 4.4
2016-Dec-12 15:29N 46°24' E 030°57'  

Dump ship's entire track history